Airfield :
LOGIN :

Register | Disclaimer

   EN    FR    IT 

 










Legend :    VFR   Marginal VFR   IFR   Intensive IFR   Very Intensive IFR
Visi :
Ceiling :
>= 8 km
>= 3000ft
5 to 8 km
1000 to 3000 ft
1500m to 5 km
500 to 1000 ft
800 to 1500m
200 to 500 ft
< 800m
< 200 ft
Symbols :   Thunderstorms  Fog  Heavy snow  Heavy precipitations  Wind > 20 kt
SIGMETs :     Misc.  Thunderstorms  Icing  Turbulence  Mountain Waves  Volcanic Ashes






- Airport Elevation : 628 ft
- IATA code : CMR


LFGA - Colmar-Houssen

CURRENT METAR :
  • 151400Z AUTO 10005KT 050V140 CAVOK 29/18 Q1009

EXPIRED METARs :
  • 151330Z AUTO 11005KT 030V150 CAVOK 30/18 Q1010
  • 151300Z AUTO 16005KT 110V210 CAVOK 29/17 Q1010
  • 151230Z AUTO 13004KT 080V230 CAVOK 29/17 Q1010
  • 151200Z AUTO 14007KT 090V190 CAVOK 28/17 Q1011
  • 151130Z AUTO VRB03KT CAVOK 28/17 Q1011
  • 151100Z AUTO 14006KT 100V180 CAVOK 28/16 Q1011
  • 151030Z AUTO 14004KT 080V180 CAVOK 27/15 Q1012
  • 151000Z AUTO VRB04KT CAVOK 26/15 Q1012
  • 150930Z AUTO VRB03KT CAVOK 25/15 Q1012

TAF N/A



MET'MAP, your aeronautical weather chart ! - Copyright ORBIFLY December 2007 - Disclaimer

ORBIFLY MET'MAP TEAM :

Programming & Development : Alexandra Zaïnal
Original concept : Baudouin d'Aumeries
Technical & hardware support : Manuel Goepfert
Assistance : Marc-Olivier Méhu




SOURCES & CREDITS :

   NOAA